sensor_id;sensor_type;location;lat;lon;timestamp;P1;durP1;ratioP1;P2;durP2;ratioP2
38529;SDS011;24301;54.332;48.386;2023-04-07T00:01:49;2.13;;;1.17;;
38529;SDS011;24301;54.332;48.386;2023-04-07T00:04:15;1.67;;;1.00;;
38529;SDS011;24301;54.332;48.386;2023-04-07T00:06:41;2.30;;;0.80;;
38529;SDS011;24301;54.332;48.386;2023-04-07T00:09:08;2.40;;;0.90;;
38529;SDS011;24301;54.332;48.386;2023-04-07T00:11:35;0.93;;;0.80;;
38529;SDS011;24301;54.332;48.386;2023-04-07T00:14:01;1.10;;;0.80;;
38529;SDS011;24301;54.332;48.386;2023-04-07T00:16:27;0.77;;;0.77;;
38529;SDS011;24301;54.332;48.386;2023-04-07T00:18:53;0.97;;;0.87;;
38529;SDS011;24301;54.332;48.386;2023-04-07T00:21:19;1.83;;;0.80;;
38529;SDS011;24301;54.332;48.386;2023-04-07T00:23:45;2.37;;;0.80;;
38529;SDS011;24301;54.332;48.386;2023-04-07T00:26:12;0.83;;;0.80;;
38529;SDS011;24301;54.332;48.386;2023-04-07T00:28:40;2.13;;;1.10;;
38529;SDS011;24301;54.332;48.386;2023-04-07T00:31:06;1.97;;;1.13;;
38529;SDS011;24301;54.332;48.386;2023-04-07T00:33:32;1.13;;;0.80;;
38529;SDS011;24301;54.332;48.386;2023-04-07T00:35:58;2.37;;;1.17;;
38529;SDS011;24301;54.332;48.386;2023-04-07T00:38:24;2.73;;;1.00;;
38529;SDS011;24301;54.332;48.386;2023-04-07T00:40:55;1.07;;;0.80;;
38529;SDS011;24301;54.332;48.386;2023-04-07T00:43:23;1.30;;;0.90;;
38529;SDS011;24301;54.332;48.386;2023-04-07T00:45:50;1.90;;;1.00;;
38529;SDS011;24301;54.332;48.386;2023-04-07T00:48:16;1.10;;;0.80;;
38529;SDS011;24301;54.332;48.386;2023-04-07T00:50:44;3.83;;;0.90;;
38529;SDS011;24301;54.332;48.386;2023-04-07T00:53:10;1.90;;;0.80;;
38529;SDS011;24301;54.332;48.386;2023-04-07T00:55:36;0.80;;;0.80;;
38529;SDS011;24301;54.332;48.386;2023-04-07T00:58:03;1.17;;;0.87;;
38529;SDS011;24301;54.332;48.386;2023-04-07T01:00:40;0.80;;;0.80;;
38529;SDS011;24301;54.332;48.386;2023-04-07T01:03:17;1.13;;;0.73;;
38529;SDS011;24301;54.332;48.386;2023-04-07T01:05:49;2.23;;;1.00;;
38529;SDS011;24301;54.332;48.386;2023-04-07T01:08:22;2.50;;;0.93;;
38529;SDS011;24301;54.332;48.386;2023-04-07T01:16:04;2.73;;;1.20;;
38529;SDS011;24301;54.332;48.386;2023-04-07T01:18:41;1.70;;;1.00;;
38529;SDS011;24301;54.332;48.386;2023-04-07T01:21:14;1.63;;;1.00;;
38529;SDS011;24301;54.332;48.386;2023-04-07T01:26:33;2.10;;;1.10;;
38529;SDS011;24301;54.332;48.386;2023-04-07T01:29:06;3.40;;;1.37;;
38529;SDS011;24301;54.332;48.386;2023-04-07T01:31:44;2.17;;;1.20;;
38529;SDS011;24301;54.332;48.386;2023-04-07T01:34:13;2.50;;;1.67;;
38529;SDS011;24301;54.332;48.386;2023-04-07T01:36:41;1.63;;;1.20;;
38529;SDS011;24301;54.332;48.386;2023-04-07T01:39:10;2.83;;;1.40;;
38529;SDS011;24301;54.332;48.386;2023-04-07T01:41:37;2.87;;;1.30;;
38529;SDS011;24301;54.332;48.386;2023-04-07T01:44:05;2.47;;;1.47;;
38529;SDS011;24301;54.332;48.386;2023-04-07T01:46:32;3.33;;;1.50;;
38529;SDS011;24301;54.332;48.386;2023-04-07T01:48:58;3.47;;;1.70;;
38529;SDS011;24301;54.332;48.386;2023-04-07T01:51:26;3.30;;;1.70;;
38529;SDS011;24301;54.332;48.386;2023-04-07T01:53:55;2.13;;;1.53;;
38529;SDS011;24301;54.332;48.386;2023-04-07T01:56:22;3.90;;;1.90;;
38529;SDS011;24301;54.332;48.386;2023-04-07T01:58:50;3.37;;;1.80;;
38529;SDS011;24301;54.332;48.386;2023-04-07T02:01:19;4.40;;;1.63;;
38529;SDS011;24301;54.332;48.386;2023-04-07T02:03:53;5.67;;;2.87;;
38529;SDS011;24301;54.332;48.386;2023-04-07T02:06:28;3.63;;;2.23;;
38529;SDS011;24301;54.332;48.386;2023-04-07T02:09:01;2.80;;;1.83;;
38529;SDS011;24301;54.332;48.386;2023-04-07T02:11:31;4.03;;;2.23;;
38529;SDS011;24301;54.332;48.386;2023-04-07T02:14:02;5.37;;;1.93;;
38529;SDS011;24301;54.332;48.386;2023-04-07T02:16:36;3.77;;;2.13;;
38529;SDS011;24301;54.332;48.386;2023-04-07T02:19:02;1.73;;;1.50;;
38529;SDS011;24301;54.332;48.386;2023-04-07T02:21:29;2.63;;;1.97;;
38529;SDS011;24301;54.332;48.386;2023-04-07T02:23:59;4.50;;;1.97;;
38529;SDS011;24301;54.332;48.386;2023-04-07T02:26:26;4.13;;;2.33;;
38529;SDS011;24301;54.332;48.386;2023-04-07T02:28:52;3.27;;;1.97;;
38529;SDS011;24301;54.332;48.386;2023-04-07T02:31:17;2.20;;;1.50;;
38529;SDS011;24301;54.332;48.386;2023-04-07T02:33:43;2.63;;;1.77;;
38529;SDS011;24301;54.332;48.386;2023-04-07T02:36:11;2.60;;;1.90;;
38529;SDS011;24301;54.332;48.386;2023-04-07T02:38:36;6.23;;;2.37;;
38529;SDS011;24301;54.332;48.386;2023-04-07T02:41:03;3.53;;;1.87;;
38529;SDS011;24301;54.332;48.386;2023-04-07T02:43:28;4.07;;;2.67;;
38529;SDS011;24301;54.332;48.386;2023-04-07T02:45:54;3.00;;;2.37;;
38529;SDS011;24301;54.332;48.386;2023-04-07T02:48:22;3.47;;;1.70;;
38529;SDS011;24301;54.332;48.386;2023-04-07T02:50:47;2.73;;;1.63;;
38529;SDS011;24301;54.332;48.386;2023-04-07T02:53:13;3.57;;;2.10;;
38529;SDS011;24301;54.332;48.386;2023-04-07T02:55:40;2.33;;;1.70;;
38529;SDS011;24301;54.332;48.386;2023-04-07T02:58:06;6.23;;;2.93;;
38529;SDS011;24301;54.332;48.386;2023-04-07T03:00:37;3.20;;;1.70;;
38529;SDS011;24301;54.332;48.386;2023-04-07T03:03:09;2.83;;;1.70;;
38529;SDS011;24301;54.332;48.386;2023-04-07T03:05:38;4.13;;;2.00;;
38529;SDS011;24301;54.332;48.386;2023-04-07T03:08:04;3.67;;;2.00;;
38529;SDS011;24301;54.332;48.386;2023-04-07T03:10:30;3.63;;;1.67;;
38529;SDS011;24301;54.332;48.386;2023-04-07T03:12:56;2.17;;;1.53;;
38529;SDS011;24301;54.332;48.386;2023-04-07T03:15:23;1.97;;;1.50;;
38529;SDS011;24301;54.332;48.386;2023-04-07T03:17:50;2.03;;;1.47;;
38529;SDS011;24301;54.332;48.386;2023-04-07T03:20:16;5.20;;;2.20;;
38529;SDS011;24301;54.332;48.386;2023-04-07T03:22:42;4.57;;;2.00;;
38529;SDS011;24301;54.332;48.386;2023-04-07T03:27:42;3.13;;;1.43;;
38529;SDS011;24301;54.332;48.386;2023-04-07T03:30:11;1.33;;;1.20;;
38529;SDS011;24301;54.332;48.386;2023-04-07T03:32:37;1.47;;;1.23;;
38529;SDS011;24301;54.332;48.386;2023-04-07T03:35:03;2.90;;;1.40;;
38529;SDS011;24301;54.332;48.386;2023-04-07T03:37:29;2.87;;;1.40;;
38529;SDS011;24301;54.332;48.386;2023-04-07T03:39:55;3.37;;;1.10;;
38529;SDS011;24301;54.332;48.386;2023-04-07T03:42:25;3.10;;;1.77;;
38529;SDS011;24301;54.332;48.386;2023-04-07T03:44:56;2.50;;;1.00;;
38529;SDS011;24301;54.332;48.386;2023-04-07T03:47:22;2.73;;;1.23;;
38529;SDS011;24301;54.332;48.386;2023-04-07T03:49:54;3.97;;;1.53;;
38529;SDS011;24301;54.332;48.386;2023-04-07T03:52:20;1.57;;;1.20;;
38529;SDS011;24301;54.332;48.386;2023-04-07T03:54:50;4.33;;;1.47;;
38529;SDS011;24301;54.332;48.386;2023-04-07T03:57:19;2.67;;;1.10;;
38529;SDS011;24301;54.332;48.386;2023-04-07T03:59:47;3.40;;;1.60;;
38529;SDS011;24301;54.332;48.386;2023-04-07T04:02:17;2.90;;;1.27;;
38529;SDS011;24301;54.332;48.386;2023-04-07T04:04:47;3.57;;;1.37;;
38529;SDS011;24301;54.332;48.386;2023-04-07T04:07:13;2.30;;;1.10;;
38529;SDS011;24301;54.332;48.386;2023-04-07T04:09:46;1.63;;;1.20;;
38529;SDS011;24301;54.332;48.386;2023-04-07T04:12:12;3.07;;;1.17;;
38529;SDS011;24301;54.332;48.386;2023-04-07T04:14:46;3.20;;;1.20;;
38529;SDS011;24301;54.332;48.386;2023-04-07T04:17:13;4.30;;;1.03;;
38529;SDS011;24301;54.332;48.386;2023-04-07T04:19:43;1.90;;;1.33;;
38529;SDS011;24301;54.332;48.386;2023-04-07T04:22:20;1.50;;;1.13;;
38529;SDS011;24301;54.332;48.386;2023-04-07T04:24:56;2.07;;;1.10;;
38529;SDS011;24301;54.332;48.386;2023-04-07T04:27:25;2.93;;;1.40;;
38529;SDS011;24301;54.332;48.386;2023-04-07T04:29:57;3.22;;;1.17;;
38529;SDS011;24301;54.332;48.386;2023-04-07T04:32:53;2.60;;;1.10;;
38529;SDS011;24301;54.332;48.386;2023-04-07T04:35:37;1.93;;;1.10;;
38529;SDS011;24301;54.332;48.386;2023-04-07T04:38:13;2.87;;;1.27;;
38529;SDS011;24301;54.332;48.386;2023-04-07T04:40:43;1.67;;;1.20;;
38529;SDS011;24301;54.332;48.386;2023-04-07T04:43:10;2.17;;;1.13;;
38529;SDS011;24301;54.332;48.386;2023-04-07T04:45:38;2.70;;;1.30;;
38529;SDS011;24301;54.332;48.386;2023-04-07T04:48:06;2.70;;;1.37;;
38529;SDS011;24301;54.332;48.386;2023-04-07T04:50:32;3.47;;;1.70;;
38529;SDS011;24301;54.332;48.386;2023-04-07T04:53:00;2.17;;;1.07;;
38529;SDS011;24301;54.332;48.386;2023-04-07T04:55:26;2.93;;;1.23;;
38529;SDS011;24301;54.332;48.386;2023-04-07T04:57:53;2.37;;;1.30;;
38529;SDS011;24301;54.332;48.386;2023-04-07T05:00:27;3.20;;;1.30;;
38529;SDS011;24301;54.332;48.386;2023-04-07T05:02:59;11.47;;;1.53;;
38529;SDS011;24301;54.332;48.386;2023-04-07T05:05:25;2.73;;;1.23;;
38529;SDS011;24301;54.332;48.386;2023-04-07T05:07:53;1.10;;;1.00;;
38529;SDS011;24301;54.332;48.386;2023-04-07T05:10:20;4.70;;;1.20;;
38529;SDS011;24301;54.332;48.386;2023-04-07T05:12:49;5.77;;;1.47;;
38529;SDS011;24301;54.332;48.386;2023-04-07T05:15:15;2.40;;;1.40;;
38529;SDS011;24301;54.332;48.386;2023-04-07T05:17:45;2.00;;;1.10;;
38529;SDS011;24301;54.332;48.386;2023-04-07T05:20:19;2.03;;;1.10;;
38529;SDS011;24301;54.332;48.386;2023-04-07T05:22:44;1.40;;;1.17;;
38529;SDS011;24301;54.332;48.386;2023-04-07T05:25:12;4.23;;;1.70;;
38529;SDS011;24301;54.332;48.386;2023-04-07T05:27:40;2.20;;;1.17;;
38529;SDS011;24301;54.332;48.386;2023-04-07T05:30:12;4.00;;;1.43;;
38529;SDS011;24301;54.332;48.386;2023-04-07T05:33:06;2.97;;;1.07;;
38529;SDS011;24301;54.332;48.386;2023-04-07T05:35:42;3.23;;;1.30;;
38529;SDS011;24301;54.332;48.386;2023-04-07T05:38:09;3.33;;;1.80;;
38529;SDS011;24301;54.332;48.386;2023-04-07T05:40:36;2.23;;;1.27;;
38529;SDS011;24301;54.332;48.386;2023-04-07T05:43:03;2.30;;;1.37;;
38529;SDS011;24301;54.332;48.386;2023-04-07T05:45:30;4.37;;;1.70;;
38529;SDS011;24301;54.332;48.386;2023-04-07T05:47:56;4.70;;;1.97;;
38529;SDS011;24301;54.332;48.386;2023-04-07T05:52:58;4.67;;;1.47;;
38529;SDS011;24301;54.332;48.386;2023-04-07T05:55:25;1.63;;;1.20;;
38529;SDS011;24301;54.332;48.386;2023-04-07T05:57:51;11.93;;;2.55;;
38529;SDS011;24301;54.332;48.386;2023-04-07T06:00:20;5.73;;;1.57;;
38529;SDS011;24301;54.332;48.386;2023-04-07T06:02:56;5.40;;;1.30;;
38529;SDS011;24301;54.332;48.386;2023-04-07T06:05:24;3.73;;;1.20;;
38529;SDS011;24301;54.332;48.386;2023-04-07T06:07:53;3.93;;;1.57;;
38529;SDS011;24301;54.332;48.386;2023-04-07T06:10:19;2.10;;;1.23;;
38529;SDS011;24301;54.332;48.386;2023-04-07T06:12:45;5.23;;;2.10;;
38529;SDS011;24301;54.332;48.386;2023-04-07T06:15:11;3.47;;;1.73;;
38529;SDS011;24301;54.332;48.386;2023-04-07T06:17:37;4.93;;;1.70;;
38529;SDS011;24301;54.332;48.386;2023-04-07T06:20:03;4.78;;;1.48;;
38529;SDS011;24301;54.332;48.386;2023-04-07T06:22:31;6.40;;;1.67;;
38529;SDS011;24301;54.332;48.386;2023-04-07T06:24:58;2.35;;;1.63;;
38529;SDS011;24301;54.332;48.386;2023-04-07T06:27:24;3.33;;;1.10;;
38529;SDS011;24301;54.332;48.386;2023-04-07T06:29:50;3.22;;;2.10;;
38529;SDS011;24301;54.332;48.386;2023-04-07T06:32:16;3.00;;;1.60;;
38529;SDS011;24301;54.332;48.386;2023-04-07T06:34:43;1.73;;;1.30;;
38529;SDS011;24301;54.332;48.386;2023-04-07T06:37:09;4.88;;;1.60;;
38529;SDS011;24301;54.332;48.386;2023-04-07T06:39:35;6.00;;;1.58;;
38529;SDS011;24301;54.332;48.386;2023-04-07T06:42:02;3.03;;;1.10;;
38529;SDS011;24301;54.332;48.386;2023-04-07T06:44:30;3.03;;;1.33;;
38529;SDS011;24301;54.332;48.386;2023-04-07T06:46:56;5.35;;;1.45;;
38529;SDS011;24301;54.332;48.386;2023-04-07T06:49:22;2.75;;;1.70;;
38529;SDS011;24301;54.332;48.386;2023-04-07T06:51:47;3.17;;;1.45;;
38529;SDS011;24301;54.332;48.386;2023-04-07T06:54:13;2.63;;;1.10;;
38529;SDS011;24301;54.332;48.386;2023-04-07T06:56:40;4.82;;;1.83;;
38529;SDS011;24301;54.332;48.386;2023-04-07T06:59:06;3.92;;;1.55;;
38529;SDS011;24301;54.332;48.386;2023-04-07T07:01:32;3.67;;;1.40;;
38529;SDS011;24301;54.332;48.386;2023-04-07T07:03:58;3.83;;;1.63;;
38529;SDS011;24301;54.332;48.386;2023-04-07T07:06:27;4.93;;;1.60;;
38529;SDS011;24301;54.332;48.386;2023-04-07T07:08:53;4.53;;;1.33;;
38529;SDS011;24301;54.332;48.386;2023-04-07T07:11:19;4.53;;;1.95;;
38529;SDS011;24301;54.332;48.386;2023-04-07T07:13:45;4.65;;;1.60;;
38529;SDS011;24301;54.332;48.386;2023-04-07T07:16:12;3.33;;;1.55;;
38529;SDS011;24301;54.332;48.386;2023-04-07T07:18:38;6.35;;;1.70;;
38529;SDS011;24301;54.332;48.386;2023-04-07T07:21:03;2.22;;;1.48;;
38529;SDS011;24301;54.332;48.386;2023-04-07T07:23:29;4.97;;;1.50;;
38529;SDS011;24301;54.332;48.386;2023-04-07T07:25:55;3.22;;;1.73;;
38529;SDS011;24301;54.332;48.386;2023-04-07T07:28:21;2.80;;;1.52;;
38529;SDS011;24301;54.332;48.386;2023-04-07T07:30:48;3.65;;;1.67;;
38529;SDS011;24301;54.332;48.386;2023-04-07T07:33:14;3.50;;;1.65;;
38529;SDS011;24301;54.332;48.386;2023-04-07T07:35:40;3.75;;;1.65;;
38529;SDS011;24301;54.332;48.386;2023-04-07T07:38:05;5.10;;;1.95;;
38529;SDS011;24301;54.332;48.386;2023-04-07T07:40:31;5.22;;;1.60;;
38529;SDS011;24301;54.332;48.386;2023-04-07T07:42:58;7.47;;;1.80;;
38529;SDS011;24301;54.332;48.386;2023-04-07T07:45:25;2.72;;;1.40;;
38529;SDS011;24301;54.332;48.386;2023-04-07T07:47:51;4.20;;;2.10;;
38529;SDS011;24301;54.332;48.386;2023-04-07T07:50:17;5.43;;;1.92;;
38529;SDS011;24301;54.332;48.386;2023-04-07T07:52:42;3.45;;;1.67;;
38529;SDS011;24301;54.332;48.386;2023-04-07T07:55:08;4.30;;;1.52;;
38529;SDS011;24301;54.332;48.386;2023-04-07T07:57:34;2.33;;;1.38;;
38529;SDS011;24301;54.332;48.386;2023-04-07T08:00:01;7.75;;;1.98;;
38529;SDS011;24301;54.332;48.386;2023-04-07T08:02:38;7.65;;;1.63;;
38529;SDS011;24301;54.332;48.386;2023-04-07T08:05:04;4.95;;;1.67;;
38529;SDS011;24301;54.332;48.386;2023-04-07T08:07:31;4.57;;;2.05;;
38529;SDS011;24301;54.332;48.386;2023-04-07T08:09:57;3.75;;;1.83;;
38529;SDS011;24301;54.332;48.386;2023-04-07T08:12:22;3.40;;;1.63;;
38529;SDS011;24301;54.332;48.386;2023-04-07T08:14:48;5.10;;;1.65;;
38529;SDS011;24301;54.332;48.386;2023-04-07T08:17:15;3.60;;;2.30;;
38529;SDS011;24301;54.332;48.386;2023-04-07T08:19:41;3.67;;;1.80;;
38529;SDS011;24301;54.332;48.386;2023-04-07T08:22:07;5.03;;;2.27;;
38529;SDS011;24301;54.332;48.386;2023-04-07T08:24:32;4.03;;;1.93;;
38529;SDS011;24301;54.332;48.386;2023-04-07T08:26:58;4.87;;;2.23;;
38529;SDS011;24301;54.332;48.386;2023-04-07T08:29:25;3.80;;;1.90;;
38529;SDS011;24301;54.332;48.386;2023-04-07T08:31:51;5.27;;;2.13;;
38529;SDS011;24301;54.332;48.386;2023-04-07T08:34:17;6.77;;;2.07;;
38529;SDS011;24301;54.332;48.386;2023-04-07T08:36:45;5.33;;;2.00;;
38529;SDS011;24301;54.332;48.386;2023-04-07T08:39:11;5.27;;;2.43;;
38529;SDS011;24301;54.332;48.386;2023-04-07T08:41:38;5.20;;;2.73;;
38529;SDS011;24301;54.332;48.386;2023-04-07T08:44:08;7.30;;;2.23;;
38529;SDS011;24301;54.332;48.386;2023-04-07T08:46:35;7.10;;;1.80;;
38529;SDS011;24301;54.332;48.386;2023-04-07T08:49:06;33.87;;;3.97;;
38529;SDS011;24301;54.332;48.386;2023-04-07T08:51:34;6.73;;;2.63;;
38529;SDS011;24301;54.332;48.386;2023-04-07T08:56:41;5.87;;;2.40;;
38529;SDS011;24301;54.332;48.386;2023-04-07T08:59:09;3.53;;;2.03;;
38529;SDS011;24301;54.332;48.386;2023-04-07T09:01:37;4.77;;;1.93;;
38529;SDS011;24301;54.332;48.386;2023-04-07T09:04:04;7.10;;;2.23;;
38529;SDS011;24301;54.332;48.386;2023-04-07T09:06:34;5.07;;;2.30;;
38529;SDS011;24301;54.332;48.386;2023-04-07T09:09:00;7.13;;;2.77;;
38529;SDS011;24301;54.332;48.386;2023-04-07T09:11:27;2.57;;;1.90;;
38529;SDS011;24301;54.332;48.386;2023-04-07T09:13:54;8.23;;;2.73;;
38529;SDS011;24301;54.332;48.386;2023-04-07T09:16:21;3.70;;;2.00;;
38529;SDS011;24301;54.332;48.386;2023-04-07T09:18:48;2.37;;;1.77;;
38529;SDS011;24301;54.332;48.386;2023-04-07T09:21:14;4.67;;;2.00;;
38529;SDS011;24301;54.332;48.386;2023-04-07T09:23:40;6.40;;;2.10;;
38529;SDS011;24301;54.332;48.386;2023-04-07T09:28:57;3.60;;;2.30;;
38529;SDS011;24301;54.332;48.386;2023-04-07T09:34:30;8.20;;;1.93;;
38529;SDS011;24301;54.332;48.386;2023-04-07T09:36:55;8.57;;;2.30;;
38529;SDS011;24301;54.332;48.386;2023-04-07T09:39:22;4.83;;;2.60;;
38529;SDS011;24301;54.332;48.386;2023-04-07T09:41:48;3.73;;;2.30;;
38529;SDS011;24301;54.332;48.386;2023-04-07T09:44:14;4.03;;;1.90;;
38529;SDS011;24301;54.332;48.386;2023-04-07T09:46:53;11.17;;;2.80;;
38529;SDS011;24301;54.332;48.386;2023-04-07T09:49:23;9.30;;;3.67;;
38529;SDS011;24301;54.332;48.386;2023-04-07T09:51:54;6.27;;;1.90;;
38529;SDS011;24301;54.332;48.386;2023-04-07T09:54:33;5.43;;;2.00;;
38529;SDS011;24301;54.332;48.386;2023-04-07T09:57:01;4.37;;;2.20;;
38529;SDS011;24301;54.332;48.386;2023-04-07T09:59:29;4.23;;;2.10;;
38529;SDS011;24301;54.332;48.386;2023-04-07T10:01:56;3.23;;;2.17;;
38529;SDS011;24301;54.332;48.386;2023-04-07T10:04:25;8.53;;;2.90;;
38529;SDS011;24301;54.332;48.386;2023-04-07T10:06:55;8.40;;;2.30;;
38529;SDS011;24301;54.332;48.386;2023-04-07T10:09:22;2.87;;;2.10;;
38529;SDS011;24301;54.332;48.386;2023-04-07T10:11:50;4.30;;;2.30;;
38529;SDS011;24301;54.332;48.386;2023-04-07T10:14:17;6.23;;;2.17;;
38529;SDS011;24301;54.332;48.386;2023-04-07T10:16:45;7.93;;;2.20;;
38529;SDS011;24301;54.332;48.386;2023-04-07T10:19:12;3.13;;;2.33;;
38529;SDS011;24301;54.332;48.386;2023-04-07T10:21:40;3.40;;;1.63;;
38529;SDS011;24301;54.332;48.386;2023-04-07T10:26:56;3.80;;;1.97;;
38529;SDS011;24301;54.332;48.386;2023-04-07T10:29:27;8.40;;;2.20;;
38529;SDS011;24301;54.332;48.386;2023-04-07T10:31:57;4.10;;;1.87;;
38529;SDS011;24301;54.332;48.386;2023-04-07T10:37:15;5.40;;;2.27;;
38529;SDS011;24301;54.332;48.386;2023-04-07T10:39:50;6.30;;;2.20;;
38529;SDS011;24301;54.332;48.386;2023-04-07T10:45:08;8.30;;;2.20;;
38529;SDS011;24301;54.332;48.386;2023-04-07T10:47:36;2.97;;;1.90;;
38529;SDS011;24301;54.332;48.386;2023-04-07T10:50:23;3.70;;;1.77;;
38529;SDS011;24301;54.332;48.386;2023-04-07T10:55:40;3.53;;;1.87;;
38529;SDS011;24301;54.332;48.386;2023-04-07T10:58:14;3.97;;;2.40;;
38529;SDS011;24301;54.332;48.386;2023-04-07T11:03:40;3.17;;;2.00;;
38529;SDS011;24301;54.332;48.386;2023-04-07T11:08:35;8.60;;;2.30;;
38529;SDS011;24301;54.332;48.386;2023-04-07T11:11:06;4.53;;;1.67;;
38529;SDS011;24301;54.332;48.386;2023-04-07T11:13:39;7.57;;;1.80;;
38529;SDS011;24301;54.332;48.386;2023-04-07T11:16:10;5.27;;;3.03;;
38529;SDS011;24301;54.332;48.386;2023-04-07T11:18:38;3.07;;;2.10;;
38529;SDS011;24301;54.332;48.386;2023-04-07T11:21:05;5.80;;;2.43;;
38529;SDS011;24301;54.332;48.386;2023-04-07T11:23:38;4.63;;;1.97;;
38529;SDS011;24301;54.332;48.386;2023-04-07T11:26:06;5.73;;;1.60;;
38529;SDS011;24301;54.332;48.386;2023-04-07T11:28:33;4.57;;;1.70;;
38529;SDS011;24301;54.332;48.386;2023-04-07T11:30:59;4.77;;;1.60;;
38529;SDS011;24301;54.332;48.386;2023-04-07T11:33:26;3.63;;;1.77;;
38529;SDS011;24301;54.332;48.386;2023-04-07T11:35:59;4.00;;;1.97;;
38529;SDS011;24301;54.332;48.386;2023-04-07T11:38:27;6.10;;;2.53;;
38529;SDS011;24301;54.332;48.386;2023-04-07T11:41:08;6.13;;;1.90;;
38529;SDS011;24301;54.332;48.386;2023-04-07T11:43:43;5.75;;;2.00;;
38529;SDS011;24301;54.332;48.386;2023-04-07T11:48:42;4.60;;;2.50;;
38529;SDS011;24301;54.332;48.386;2023-04-07T11:51:16;5.43;;;2.10;;
38529;SDS011;24301;54.332;48.386;2023-04-07T11:53:54;4.57;;;1.70;;
38529;SDS011;24301;54.332;48.386;2023-04-07T11:56:21;2.88;;;1.33;;
38529;SDS011;24301;54.332;48.386;2023-04-07T11:58:50;5.00;;;2.10;;
38529;SDS011;24301;54.332;48.386;2023-04-07T12:01:18;4.33;;;1.83;;
38529;SDS011;24301;54.332;48.386;2023-04-07T12:03:57;3.03;;;1.60;;
38529;SDS011;24301;54.332;48.386;2023-04-07T12:06:30;6.03;;;2.10;;
38529;SDS011;24301;54.332;48.386;2023-04-07T12:09:00;5.47;;;2.70;;
38529;SDS011;24301;54.332;48.386;2023-04-07T12:11:27;3.53;;;1.90;;
38529;SDS011;24301;54.332;48.386;2023-04-07T12:13:53;4.97;;;2.00;;
38529;SDS011;24301;54.332;48.386;2023-04-07T12:16:19;3.50;;;1.90;;
38529;SDS011;24301;54.332;48.386;2023-04-07T12:18:46;2.60;;;1.80;;
38529;SDS011;24301;54.332;48.386;2023-04-07T12:21:12;5.20;;;2.67;;
38529;SDS011;24301;54.332;48.386;2023-04-07T12:23:38;2.87;;;2.43;;
38529;SDS011;24301;54.332;48.386;2023-04-07T12:26:04;4.63;;;2.53;;
38529;SDS011;24301;54.332;48.386;2023-04-07T12:28:30;4.67;;;2.60;;
38529;SDS011;24301;54.332;48.386;2023-04-07T12:30:56;4.67;;;2.40;;
38529;SDS011;24301;54.332;48.386;2023-04-07T12:33:22;3.90;;;2.37;;
38529;SDS011;24301;54.332;48.386;2023-04-07T12:35:47;3.60;;;2.60;;
38529;SDS011;24301;54.332;48.386;2023-04-07T12:38:13;8.70;;;2.37;;
38529;SDS011;24301;54.332;48.386;2023-04-07T12:40:39;3.50;;;2.20;;
38529;SDS011;24301;54.332;48.386;2023-04-07T12:43:06;4.03;;;1.90;;
38529;SDS011;24301;54.332;48.386;2023-04-07T12:45:32;4.17;;;1.90;;
38529;SDS011;24301;54.332;48.386;2023-04-07T12:47:58;4.80;;;2.20;;
38529;SDS011;24301;54.332;48.386;2023-04-07T12:50:23;7.60;;;2.40;;
38529;SDS011;24301;54.332;48.386;2023-04-07T12:52:51;5.23;;;2.30;;
38529;SDS011;24301;54.332;48.386;2023-04-07T12:55:17;7.77;;;2.60;;
38529;SDS011;24301;54.332;48.386;2023-04-07T12:57:43;3.33;;;2.60;;
38529;SDS011;24301;54.332;48.386;2023-04-07T13:00:09;3.07;;;1.97;;
38529;SDS011;24301;54.332;48.386;2023-04-07T13:02:35;5.23;;;2.00;;
38529;SDS011;24301;54.332;48.386;2023-04-07T13:05:01;6.63;;;2.17;;
38529;SDS011;24301;54.332;48.386;2023-04-07T13:07:29;8.87;;;2.60;;
38529;SDS011;24301;54.332;48.386;2023-04-07T13:09:55;3.90;;;2.40;;
38529;SDS011;24301;54.332;48.386;2023-04-07T13:12:21;4.47;;;2.13;;
38529;SDS011;24301;54.332;48.386;2023-04-07T13:14:48;4.93;;;2.30;;
38529;SDS011;24301;54.332;48.386;2023-04-07T13:17:14;5.73;;;2.20;;
38529;SDS011;24301;54.332;48.386;2023-04-07T13:19:40;6.30;;;2.00;;
38529;SDS011;24301;54.332;48.386;2023-04-07T13:22:05;8.13;;;2.30;;
38529;SDS011;24301;54.332;48.386;2023-04-07T13:24:32;5.50;;;2.50;;
38529;SDS011;24301;54.332;48.386;2023-04-07T13:26:58;5.03;;;2.20;;
38529;SDS011;24301;54.332;48.386;2023-04-07T13:29:23;6.03;;;2.40;;
38529;SDS011;24301;54.332;48.386;2023-04-07T13:31:50;7.07;;;2.40;;
38529;SDS011;24301;54.332;48.386;2023-04-07T13:34:15;7.13;;;2.60;;
38529;SDS011;24301;54.332;48.386;2023-04-07T13:36:41;3.37;;;2.00;;
38529;SDS011;24301;54.332;48.386;2023-04-07T13:39:07;6.67;;;2.10;;
38529;SDS011;24301;54.332;48.386;2023-04-07T13:41:34;7.20;;;2.80;;
38529;SDS011;24301;54.332;48.386;2023-04-07T13:44:00;5.30;;;2.27;;
38529;SDS011;24301;54.332;48.386;2023-04-07T13:46:26;4.60;;;2.07;;
38529;SDS011;24301;54.332;48.386;2023-04-07T13:48:52;5.07;;;2.10;;
38529;SDS011;24301;54.332;48.386;2023-04-07T13:51:18;3.77;;;2.33;;
38529;SDS011;24301;54.332;48.386;2023-04-07T13:53:44;3.87;;;1.90;;
38529;SDS011;24301;54.332;48.386;2023-04-07T13:56:10;6.07;;;2.47;;
38529;SDS011;24301;54.332;48.386;2023-04-07T13:58:36;3.13;;;2.10;;
38529;SDS011;24301;54.332;48.386;2023-04-07T14:01:02;8.37;;;3.17;;
38529;SDS011;24301;54.332;48.386;2023-04-07T14:03:28;3.13;;;2.20;;
38529;SDS011;24301;54.332;48.386;2023-04-07T14:05:54;6.80;;;2.07;;
38529;SDS011;24301;54.332;48.386;2023-04-07T14:08:25;4.63;;;2.00;;
38529;SDS011;24301;54.332;48.386;2023-04-07T14:10:52;3.10;;;2.00;;
38529;SDS011;24301;54.332;48.386;2023-04-07T14:13:18;5.30;;;2.00;;
38529;SDS011;24301;54.332;48.386;2023-04-07T14:15:44;4.90;;;2.57;;
38529;SDS011;24301;54.332;48.386;2023-04-07T14:18:10;5.53;;;2.60;;
38529;SDS011;24301;54.332;48.386;2023-04-07T14:20:36;7.13;;;2.57;;
38529;SDS011;24301;54.332;48.386;2023-04-07T14:23:02;8.47;;;3.00;;
38529;SDS011;24301;54.332;48.386;2023-04-07T14:25:27;5.67;;;3.77;;
38529;SDS011;24301;54.332;48.386;2023-04-07T14:27:53;5.37;;;3.17;;
38529;SDS011;24301;54.332;48.386;2023-04-07T14:30:19;5.07;;;2.90;;
38529;SDS011;24301;54.332;48.386;2023-04-07T14:32:45;3.57;;;2.80;;
38529;SDS011;24301;54.332;48.386;2023-04-07T14:35:11;4.30;;;2.63;;
38529;SDS011;24301;54.332;48.386;2023-04-07T14:37:37;5.27;;;3.13;;
38529;SDS011;24301;54.332;48.386;2023-04-07T14:40:03;7.57;;;3.40;;
38529;SDS011;24301;54.332;48.386;2023-04-07T14:42:30;6.90;;;3.37;;
38529;SDS011;24301;54.332;48.386;2023-04-07T14:45:00;11.77;;;3.67;;
38529;SDS011;24301;54.332;48.386;2023-04-07T14:47:29;6.77;;;3.50;;
38529;SDS011;24301;54.332;48.386;2023-04-07T14:49:55;8.07;;;3.60;;
38529;SDS011;24301;54.332;48.386;2023-04-07T14:52:21;8.57;;;3.80;;
38529;SDS011;24301;54.332;48.386;2023-04-07T14:54:47;7.03;;;3.20;;
38529;SDS011;24301;54.332;48.386;2023-04-07T14:57:13;7.73;;;3.50;;
38529;SDS011;24301;54.332;48.386;2023-04-07T14:59:39;5.30;;;2.90;;
38529;SDS011;24301;54.332;48.386;2023-04-07T15:02:08;6.23;;;3.50;;
38529;SDS011;24301;54.332;48.386;2023-04-07T15:04:34;5.17;;;2.97;;
38529;SDS011;24301;54.332;48.386;2023-04-07T15:07:00;3.53;;;2.20;;
38529;SDS011;24301;54.332;48.386;2023-04-07T15:09:26;7.63;;;1.97;;
38529;SDS011;24301;54.332;48.386;2023-04-07T15:11:52;7.50;;;2.53;;
38529;SDS011;24301;54.332;48.386;2023-04-07T15:14:20;5.73;;;3.10;;
38529;SDS011;24301;54.332;48.386;2023-04-07T15:16:46;6.80;;;2.73;;
38529;SDS011;24301;54.332;48.386;2023-04-07T15:19:14;5.87;;;1.90;;